Time;durP1;ratioP1;P1;durP2;ratioP2;P2;SDS_P1;SDS_P2;PMS_P1;PMS_P2;Temp;Humidity;BMP_temperature;BMP_pressure;BME280_temperature;BME280_humidity;BME280_pressure;Samples;Min_cycle;Max_cycle;Signal;HPM_P1;HPM_P2
2023/08/27 00:02:10;;;;;;;59.83;32.83;;;13.00;99.90;;;;;;5083905;28;20653;-85
2023/08/27 00:04:36;;;;;;;51.00;30.67;;;13.10;99.90;;;;;;5067066;28;20080;-85
2023/08/27 00:07:02;;;;;;;57.25;32.75;;;13.00;99.90;;;;;;5064410;28;20020;-85
2023/08/27 00:09:27;;;;;;;68.70;34.40;;;13.00;99.90;;;;;;5066706;28;20032;-85
2023/08/27 00:11:59;;;;;;;50.90;30.92;;;13.00;99.90;;;;;;5066216;28;20702;-85
2023/08/27 00:14:25;;;;;;;53.03;30.92;;;13.00;99.90;;;;;;5060293;28;20028;-85
2023/08/27 00:16:51;;;;;;;51.58;29.88;;;13.00;99.90;;;;;;5086058;28;20043;-85
2023/08/27 00:19:17;;;;;;;57.28;31.05;;;13.10;99.90;;;;;;5061648;28;20044;-85
2023/08/27 00:21:42;;;;;;;58.60;33.13;;;13.10;99.90;;;;;;5069938;28;20047;-85
2023/08/27 00:24:08;;;;;;;63.00;35.72;;;13.10;99.90;;;;;;5064400;28;20034;-85
2023/08/27 00:26:34;;;;;;;54.78;31.92;;;13.10;99.90;;;;;;5067057;28;20016;-85
2023/08/27 00:28:59;;;;;;;61.78;33.53;;;13.10;99.90;;;;;;5065877;28;20015;-85
2023/08/27 00:31:25;;;;;;;74.82;40.35;;;13.10;99.90;;;;;;5067006;28;20032;-85
2023/08/27 00:33:51;;;;;;;79.95;42.92;;;13.10;99.90;;;;;;5060706;28;20027;-85
2023/08/27 00:36:17;;;;;;;75.05;39.67;;;13.20;99.90;;;;;;5059813;28;20024;-85
2023/08/27 00:38:42;;;;;;;59.13;34.78;;;13.20;99.90;;;;;;5085585;28;20036;-85
2023/08/27 00:41:08;;;;;;;70.55;38.78;;;13.30;99.90;;;;;;5063301;28;20042;-85
2023/08/27 00:43:33;;;;;;;71.93;39.00;;;13.30;99.90;;;;;;5064812;28;20023;-85
2023/08/27 00:46:02;;;;;;;74.45;38.25;;;13.40;99.90;;;;;;5062868;28;20035;-85
2023/08/27 00:48:29;;;;;;;57.47;34.85;;;13.40;99.90;;;;;;5066933;28;20492;-85
2023/08/27 00:50:54;;;;;;;60.58;33.80;;;13.40;99.90;;;;;;5080133;28;20090;-84
2023/08/27 00:53:20;;;;;;;61.88;34.63;;;13.40;99.90;;;;;;5069480;28;20020;-86
2023/08/27 00:55:46;;;;;;;58.63;35.10;;;13.40;99.90;;;;;;5065022;28;20028;-85
2023/08/27 00:58:12;;;;;;;73.85;37.85;;;13.40;99.90;;;;;;5069642;28;20027;-85
2023/08/27 01:00:39;;;;;;;67.25;37.00;;;13.50;99.90;;;;;;5065017;28;20028;-85
2023/08/27 01:03:05;;;;;;;70.95;40.08;;;13.60;99.90;;;;;;5081022;28;20073;-85
2023/08/27 01:05:31;;;;;;;79.47;41.05;;;13.60;99.90;;;;;;5066461;28;20070;-85
2023/08/27 01:08:14;;;;;;;68.20;38.70;;;13.60;99.90;;;;;;5083540;28;20073;-85
2023/08/27 01:10:49;;;;;;;74.82;39.58;;;13.70;99.90;;;;;;5060470;28;20475;-85
2023/08/27 01:13:22;;;;;;;75.90;41.97;;;13.70;99.90;;;;;;5083703;28;20034;-85
2023/08/27 01:15:58;;;;;;;65.57;36.55;;;13.70;99.90;;;;;;5080413;28;20132;-85
2023/08/27 01:18:24;;;;;;;79.20;41.47;;;13.70;99.90;;;;;;5074200;28;20032;-85
2023/08/27 01:20:50;;;;;;;75.60;38.80;;;13.70;99.90;;;;;;5059046;28;20025;-85
2023/08/27 01:23:16;;;;;;;70.93;40.22;;;13.70;99.90;;;;;;5074820;28;20036;-85
2023/08/27 01:25:46;;;;;;;73.60;39.53;;;13.70;99.90;;;;;;5083537;28;20792;-85
2023/08/27 01:28:22;;;;;;;69.57;37.78;;;13.70;99.90;;;;;;5078072;28;20048;-85
2023/08/27 01:31:03;;;;;;;79.95;41.95;;;13.70;99.90;;;;;;5094229;28;20078;-85
2023/08/27 01:33:30;;;;;;;72.32;40.00;;;13.70;99.90;;;;;;5073099;28;20059;-85
2023/08/27 01:35:57;;;;;;;68.82;38.38;;;13.70;99.90;;;;;;5080129;28;20040;-85
2023/08/27 01:38:23;;;;;;;63.55;36.63;;;13.70;99.90;;;;;;5065065;28;20532;-85
2023/08/27 01:40:48;;;;;;;73.20;37.90;;;13.70;99.90;;;;;;5065442;28;20537;-85
2023/08/27 01:43:45;;;;;;;69.15;37.53;;;13.70;99.90;;;;;;5081201;28;20066;-85
2023/08/27 01:46:11;;;;;;;65.85;38.65;;;13.70;99.90;;;;;;5062371;28;20024;-85
2023/08/27 01:48:36;;;;;;;64.65;36.75;;;13.70;99.90;;;;;;5066882;28;20032;-85
2023/08/27 01:51:03;;;;;;;71.53;35.63;;;13.80;99.90;;;;;;5063083;28;20024;-85
2023/08/27 01:53:29;;;;;;;65.70;37.38;;;13.70;99.90;;;;;;5067668;28;20051;-85
2023/08/27 01:55:55;;;;;;;58.70;34.33;;;13.70;99.90;;;;;;5064190;28;20067;-85
2023/08/27 01:58:21;;;;;;;63.13;36.03;;;13.70;99.90;;;;;;5062037;28;20035;-85
2023/08/27 02:00:49;;;;;;;65.18;33.03;;;13.70;99.90;;;;;;5082184;28;20028;-85
2023/08/27 02:03:15;;;;;;;61.25;34.95;;;13.70;99.90;;;;;;5061712;28;20050;-85
2023/08/27 02:05:41;;;;;;;69.00;35.95;;;13.80;99.90;;;;;;5065672;28;20032;-85
2023/08/27 02:08:07;;;;;;;62.20;36.33;;;13.80;99.90;;;;;;5082526;28;20356;-85
2023/08/27 02:10:33;;;;;;;56.50;34.60;;;13.80;99.90;;;;;;5058454;28;20036;-85
2023/08/27 02:12:59;;;;;;;59.38;34.63;;;13.80;99.90;;;;;;5068685;28;20457;-85
2023/08/27 02:15:24;;;;;;;61.22;34.70;;;13.90;99.90;;;;;;5059649;28;20097;-85
2023/08/27 02:17:50;;;;;;;69.85;35.15;;;13.90;99.90;;;;;;5079716;28;20032;-85
2023/08/27 02:20:16;;;;;;;62.22;33.78;;;13.90;99.90;;;;;;5061440;28;20498;-85
2023/08/27 02:22:42;;;;;;;59.90;33.95;;;13.90;99.90;;;;;;5064170;28;20028;-85
2023/08/27 02:25:09;;;;;;;66.45;35.10;;;13.90;99.90;;;;;;5080013;28;20039;-85
2023/08/27 02:27:34;;;;;;;67.80;35.92;;;13.90;99.90;;;;;;5085071;28;20082;-85
2023/08/27 02:30:00;;;;;;;64.07;34.85;;;13.90;99.90;;;;;;5064362;28;20032;-84
2023/08/27 02:32:26;;;;;;;61.90;33.42;;;13.90;99.90;;;;;;5060607;28;20125;-85
2023/08/27 02:34:51;;;;;;;52.47;31.52;;;13.90;99.90;;;;;;5055906;28;20058;-85
2023/08/27 02:37:18;;;;;;;59.63;33.00;;;13.90;99.90;;;;;;5070012;28;20039;-85
2023/08/27 02:39:44;;;;;;;54.85;31.10;;;13.90;99.90;;;;;;5065107;28;20032;-85
2023/08/27 02:42:09;;;;;;;50.60;31.17;;;13.90;99.90;;;;;;5080074;28;20024;-85
2023/08/27 02:44:35;;;;;;;62.78;32.72;;;13.80;99.90;;;;;;5083494;28;20035;-85
2023/08/27 02:47:00;;;;;;;64.75;33.85;;;13.80;99.90;;;;;;5066212;28;20066;-86
2023/08/27 02:49:26;;;;;;;58.30;34.45;;;13.80;99.90;;;;;;5067599;28;20024;-85
2023/08/27 02:51:53;;;;;;;74.75;36.13;;;13.80;99.90;;;;;;5069230;28;20028;-84
2023/08/27 02:54:19;;;;;;;57.53;33.67;;;13.80;99.90;;;;;;5067597;28;20034;-85
2023/08/27 02:56:45;;;;;;;70.53;37.95;;;13.80;99.90;;;;;;5068763;28;20024;-85
2023/08/27 02:59:10;;;;;;;65.53;36.65;;;13.80;99.90;;;;;;5081443;28;20034;-85
2023/08/27 03:01:36;;;;;;;57.38;32.50;;;13.90;99.90;;;;;;5086964;28;20047;-85
2023/08/27 03:04:03;;;;;;;61.35;35.58;;;13.80;99.90;;;;;;5066693;28;20148;-85
2023/08/27 03:06:29;;;;;;;68.03;36.10;;;13.80;99.90;;;;;;5064666;28;20031;-85
2023/08/27 03:08:55;;;;;;;62.05;32.95;;;13.90;99.90;;;;;;5067651;28;20024;-85
2023/08/27 03:11:20;;;;;;;60.58;33.90;;;13.90;99.90;;;;;;5066950;28;20538;-85
2023/08/27 03:13:48;;;;;;;56.55;32.55;;;13.90;99.90;;;;;;5067377;28;20455;-85
2023/08/27 03:16:14;;;;;;;59.15;33.75;;;13.80;99.90;;;;;;5079733;28;20356;-84
2023/08/27 03:18:39;;;;;;;54.13;32.00;;;13.80;99.90;;;;;;5060740;28;20046;-85
2023/08/27 03:21:05;;;;;;;58.08;32.88;;;13.80;99.90;;;;;;5069804;28;20056;-85
2023/08/27 03:23:34;;;;;;;60.85;33.90;;;13.70;99.90;;;;;;5061846;28;20024;-85
2023/08/27 03:26:00;;;;;;;62.60;35.03;;;13.70;99.90;;;;;;5067022;28;20494;-85
2023/08/27 03:28:25;;;;;;;55.80;33.80;;;13.80;99.90;;;;;;5064515;28;20031;-85
2023/08/27 03:30:51;;;;;;;59.88;33.25;;;13.70;99.90;;;;;;5067030;28;20028;-85
2023/08/27 03:33:17;;;;;;;60.38;33.38;;;13.70;99.90;;;;;;5064520;28;20062;-85
2023/08/27 03:35:51;;;;;;;59.88;30.77;;;13.80;99.90;;;;;;5065732;28;20115;-85
2023/08/27 03:38:18;;;;;;;55.83;29.67;;;13.80;99.90;;;;;;5082356;28;20077;-84
2023/08/27 03:40:48;;;;;;;59.33;32.05;;;13.80;99.90;;;;;;5064050;28;20059;-85
2023/08/27 03:43:14;;;;;;;64.03;33.90;;;13.80;99.90;;;;;;5085068;28;20062;-85
2023/08/27 03:45:39;;;;;;;54.70;32.15;;;13.80;99.90;;;;;;5063992;28;20144;-85
2023/08/27 03:48:05;;;;;;;56.08;31.30;;;13.80;99.90;;;;;;5071095;28;20059;-85
2023/08/27 03:50:31;;;;;;;56.35;32.92;;;13.80;99.90;;;;;;5066892;28;20475;-85
2023/08/27 03:52:57;;;;;;;49.78;30.30;;;13.80;99.90;;;;;;5063225;28;20024;-85
2023/08/27 03:55:23;;;;;;;65.88;34.60;;;13.70;99.90;;;;;;5069399;28;20813;-85
2023/08/27 03:57:50;;;;;;;63.90;36.53;;;13.80;99.90;;;;;;5081063;28;20040;-85
2023/08/27 04:00:16;;;;;;;58.75;34.75;;;13.80;99.90;;;;;;5063527;28;20473;-85
2023/08/27 04:02:44;;;;;;;61.28;34.83;;;13.80;99.90;;;;;;5082893;28;20068;-85
2023/08/27 04:05:10;;;;;;;58.65;32.42;;;13.80;99.90;;;;;;5065035;28;20503;-85
2023/08/27 04:07:36;;;;;;;58.58;33.35;;;13.90;99.90;;;;;;5067712;28;20034;-85
2023/08/27 04:10:04;;;;;;;58.70;32.88;;;13.80;99.90;;;;;;5067664;28;20464;-85
2023/08/27 04:12:31;;;;;;;58.15;30.42;;;13.80;99.90;;;;;;5066942;28;20119;-85
2023/08/27 04:14:57;;;;;;;56.15;32.03;;;13.80;99.90;;;;;;5063761;28;20028;-85
2023/08/27 04:17:23;;;;;;;59.08;33.47;;;13.90;99.90;;;;;;5085869;28;20026;-85
2023/08/27 04:19:49;;;;;;;60.13;33.72;;;13.90;99.90;;;;;;5065322;28;20536;-85
2023/08/27 04:22:14;;;;;;;66.28;34.60;;;13.90;99.90;;;;;;5071177;28;20031;-85
2023/08/27 04:24:42;;;;;;;63.15;34.40;;;13.90;99.90;;;;;;5083150;28;20459;-85
2023/08/27 04:27:07;;;;;;;63.22;32.78;;;14.00;99.90;;;;;;5061074;28;20039;-85
2023/08/27 04:29:34;;;;;;;53.80;30.40;;;14.00;99.90;;;;;;5083604;28;20027;-85
2023/08/27 04:31:59;;;;;;;66.22;34.88;;;14.00;99.90;;;;;;5065695;28;20023;-85
2023/08/27 04:34:25;;;;;;;56.55;31.85;;;14.00;99.90;;;;;;5059387;28;20039;-85
2023/08/27 04:36:51;;;;;;;70.85;33.95;;;14.00;99.90;;;;;;5058929;28;20035;-87
2023/08/27 04:39:17;;;;;;;55.78;30.30;;;14.00;99.90;;;;;;5071357;28;20020;-87
2023/08/27 04:41:42;;;;;;;65.40;32.95;;;13.90;99.90;;;;;;5068745;28;20027;-87
2023/08/27 04:44:08;;;;;;;57.40;33.00;;;13.90;99.90;;;;;;5067188;28;20031;-86
2023/08/27 04:46:34;;;;;;;61.95;33.13;;;14.00;99.90;;;;;;5066691;28;20027;-86
2023/08/27 04:48:59;;;;;;;59.60;31.95;;;13.90;99.90;;;;;;5081020;28;20020;-87
2023/08/27 04:51:28;;;;;;;56.90;32.65;;;14.00;99.90;;;;;;5070219;28;20058;-87
2023/08/27 04:53:54;;;;;;;63.00;34.15;;;13.90;99.90;;;;;;5065445;28;20372;-87
2023/08/27 04:56:20;;;;;;;67.78;36.15;;;13.90;99.90;;;;;;5071238;28;20077;-86
2023/08/27 04:58:45;;;;;;;66.68;34.60;;;14.00;99.90;;;;;;5082229;28;20538;-87
2023/08/27 05:01:11;;;;;;;59.53;32.63;;;14.00;99.90;;;;;;5080164;28;20574;-87
2023/08/27 05:03:37;;;;;;;56.25;32.78;;;14.00;99.90;;;;;;5067614;28;20023;-88
2023/08/27 05:06:03;;;;;;;75.47;34.50;;;14.00;99.90;;;;;;5082177;28;20078;-87
2023/08/27 05:08:28;;;;;;;74.70;37.25;;;14.00;99.90;;;;;;5061721;28;20059;-87
2023/08/27 05:10:54;;;;;;;62.92;35.55;;;14.00;99.90;;;;;;5066014;28;20063;-87
2023/08/27 05:13:20;;;;;;;65.97;35.40;;;14.00;99.90;;;;;;5064465;28;20024;-86
2023/08/27 05:15:46;;;;;;;69.63;35.63;;;14.00;99.90;;;;;;5067173;28;20027;-86
2023/08/27 05:18:11;;;;;;;63.47;34.92;;;14.10;99.90;;;;;;5079480;28;20494;-86
2023/08/27 05:20:38;;;;;;;80.00;37.70;;;14.10;99.90;;;;;;5068997;28;20028;-87
2023/08/27 05:23:04;;;;;;;70.35;36.28;;;14.10;99.90;;;;;;5078613;28;20019;-87
2023/08/27 05:25:30;;;;;;;73.28;37.97;;;14.10;99.90;;;;;;5059459;28;20032;-87
2023/08/27 05:27:56;;;;;;;69.55;37.22;;;14.20;99.90;;;;;;5062082;28;20022;-87
2023/08/27 05:30:24;;;;;;;61.90;33.67;;;14.30;99.90;;;;;;5059214;28;20063;-87
2023/08/27 05:32:49;;;;;;;60.47;32.22;;;14.40;99.90;;;;;;5076796;28;20145;-86
2023/08/27 05:35:15;;;;;;;57.05;32.50;;;14.40;99.90;;;;;;5062236;28;20099;-86
2023/08/27 05:37:41;;;;;;;60.83;30.70;;;14.50;99.90;;;;;;5062664;28;20032;-87
2023/08/27 05:40:08;;;;;;;48.92;28.35;;;14.50;99.90;;;;;;5058163;28;20020;-87
2023/08/27 05:42:35;;;;;;;60.17;30.10;;;14.50;99.90;;;;;;5059298;28;20119;-86
2023/08/27 05:45:00;;;;;;;50.58;29.92;;;14.50;99.90;;;;;;5062600;28;20028;-87
2023/08/27 05:47:29;;;;;;;56.15;29.05;;;14.60;99.90;;;;;;5082792;28;20111;-87
2023/08/27 05:49:55;;;;;;;50.13;27.38;;;14.70;99.90;;;;;;5064653;28;20039;-87
2023/08/27 05:52:21;;;;;;;45.67;27.70;;;14.70;99.90;;;;;;5057568;28;20032;-87
2023/08/27 05:54:47;;;;;;;55.55;29.95;;;14.80;99.90;;;;;;5056683;28;20027;-87
2023/08/27 05:57:13;;;;;;;50.70;29.42;;;14.80;99.90;;;;;;5073103;28;20060;-87
2023/08/27 05:59:39;;;;;;;52.08;27.50;;;14.90;99.90;;;;;;5058107;28;20047;-87
2023/08/27 06:02:05;;;;;;;51.67;28.90;;;15.00;99.90;;;;;;5063326;28;20383;-88
2023/08/27 06:04:31;;;;;;;43.38;26.92;;;15.00;99.90;;;;;;5075592;28;20021;-87
2023/08/27 06:06:57;;;;;;;44.03;26.25;;;14.90;99.90;;;;;;5077448;28;20064;-87
2023/08/27 06:09:23;;;;;;;43.88;25.83;;;14.80;99.90;;;;;;5057107;28;20066;-87
2023/08/27 06:11:49;;;;;;;39.33;23.45;;;14.90;99.90;;;;;;5083759;28;20108;-87
2023/08/27 06:14:15;;;;;;;49.72;25.33;;;15.00;99.90;;;;;;5059235;28;20603;-87
2023/08/27 06:16:40;;;;;;;43.75;25.45;;;15.20;99.90;;;;;;5057863;28;20763;-87
2023/08/27 06:19:06;;;;;;;45.58;27.15;;;15.40;99.90;;;;;;5075969;28;20517;-87
2023/08/27 06:21:33;;;;;;;38.08;23.92;;;15.70;99.90;;;;;;5076845;28;20020;-87
2023/08/27 06:23:59;;;;;;;42.75;23.77;;;15.90;99.90;;;;;;5078226;28;20040;-87
2023/08/27 06:26:25;;;;;;;36.95;22.83;;;16.10;99.90;;;;;;5058638;28;20066;-87
2023/08/27 06:28:50;;;;;;;31.90;18.83;;;16.30;99.90;;;;;;5076777;28;20020;-87
2023/08/27 06:31:16;;;;;;;29.55;17.23;;;16.00;99.90;;;;;;5078235;28;20051;-86
2023/08/27 06:33:44;;;;;;;24.88;18.10;;;16.10;99.90;;;;;;5055918;28;20032;-86
2023/08/27 06:36:10;;;;;;;25.33;16.40;;;16.20;99.90;;;;;;5062028;28;20032;-86
2023/08/27 06:39:29;;;;;;;19.52;15.30;;;16.20;99.90;;;;;;5068791;28;20038;-86
2023/08/27 06:41:55;;;;;;;24.67;15.23;;;16.30;99.90;;;;;;5064993;28;20052;-86
2023/08/27 06:44:20;;;;;;;23.42;16.00;;;16.40;99.90;;;;;;5063605;28;20027;-86
2023/08/27 06:46:49;;;;;;;56.53;18.17;;;16.40;99.90;;;;;;5066811;28;20031;-86
2023/08/27 06:49:15;;;;;;;35.63;17.73;;;16.50;99.90;;;;;;5064717;28;20024;-86
2023/08/27 06:51:41;;;;;;;20.90;15.77;;;16.50;99.90;;;;;;5060255;28;20066;-86
2023/08/27 06:54:08;;;;;;;21.00;14.85;;;16.80;99.90;;;;;;5061850;28;20082;-89
2023/08/27 06:56:34;;;;;;;22.92;15.55;;;17.10;99.90;;;;;;5065311;28;20020;-86
2023/08/27 06:58:59;;;;;;;20.60;14.45;;;17.10;99.90;;;;;;5064736;28;20032;-86
2023/08/27 07:01:27;;;;;;;25.67;15.63;;;17.00;99.90;;;;;;5078223;28;20032;-86
2023/08/27 07:03:54;;;;;;;24.58;16.58;;;16.70;99.90;;;;;;5063603;28;20031;-86
2023/08/27 07:06:20;;;;;;;25.77;16.85;;;16.40;99.90;;;;;;5081707;28;20020;-86
2023/08/27 07:08:46;;;;;;;26.60;16.48;;;16.30;99.90;;;;;;5081199;28;20521;-86
2023/08/27 07:11:11;;;;;;;21.90;16.25;;;16.20;99.90;;;;;;5066481;28;20034;-86
2023/08/27 07:13:37;;;;;;;23.80;16.08;;;16.10;99.90;;;;;;5064457;28;20094;-87
2023/08/27 07:16:03;;;;;;;24.38;14.88;;;16.10;99.90;;;;;;5061864;28;20058;-87
2023/08/27 07:18:29;;;;;;;24.42;15.07;;;15.90;99.90;;;;;;5083084;28;20068;-86
2023/08/27 07:21:01;;;;;;;25.50;17.17;;;15.70;99.90;;;;;;5060787;28;20028;-86
2023/08/27 07:23:27;;;;;;;27.58;15.95;;;15.80;99.90;;;;;;5071841;28;20019;-86
2023/08/27 07:25:53;;;;;;;24.92;15.75;;;16.00;99.90;;;;;;5084963;28;20027;-87
2023/08/27 07:28:19;;;;;;;20.50;14.02;;;16.20;99.90;;;;;;5065724;28;20063;-86
2023/08/27 07:30:49;;;;;;;24.75;14.25;;;16.50;99.90;;;;;;5079476;28;20136;-86
2023/08/27 07:33:15;;;;;;;25.00;14.68;;;16.90;99.90;;;;;;5102848;28;20031;-86
2023/08/27 07:35:40;;;;;;;26.08;14.18;;;17.30;99.90;;;;;;5064285;28;20034;-87
2023/08/27 07:38:06;;;;;;;19.65;14.43;;;17.50;99.90;;;;;;5067564;28;20035;-87
2023/08/27 07:40:38;;;;;;;32.45;15.98;;;17.80;99.90;;;;;;5083804;28;20487;-87
2023/08/27 07:43:05;;;;;;;22.92;15.60;;;17.80;99.90;;;;;;5070224;28;20378;-87
2023/08/27 07:45:31;;;;;;;21.70;16.02;;;17.70;99.90;;;;;;5068713;28;20139;-87
2023/08/27 07:47:57;;;;;;;22.15;15.25;;;17.90;99.90;;;;;;5085417;28;20021;-87
2023/08/27 07:50:24;;;;;;;26.05;15.63;;;18.20;99.90;;;;;;5065045;28;20027;-87
2023/08/27 07:52:50;;;;;;;25.52;16.25;;;18.10;99.90;;;;;;5070215;28;20085;-87
2023/08/27 07:55:16;;;;;;;25.30;15.00;;;17.90;99.90;;;;;;5066162;28;20110;-87
2023/08/27 07:57:42;;;;;;;28.20;17.23;;;17.70;99.90;;;;;;5066083;28;20062;-87
2023/08/27 08:00:08;;;;;;;29.20;17.75;;;17.60;99.90;;;;;;5064328;28;20054;-87
2023/08/27 08:02:40;;;;;;;34.30;18.98;;;17.40;99.90;;;;;;5085365;28;20055;-87
2023/08/27 08:05:07;;;;;;;36.47;19.50;;;17.20;99.90;;;;;;5065018;28;20062;-87
2023/08/27 08:07:35;;;;;;;30.13;17.98;;;16.90;99.90;;;;;;5070247;28;20028;-87
2023/08/27 08:10:01;;;;;;;35.65;18.00;;;17.00;99.90;;;;;;5083205;28;20818;-87
2023/08/27 08:12:27;;;;;;;34.17;18.17;;;16.90;99.90;;;;;;5063449;28;20137;-87
2023/08/27 08:14:53;;;;;;;32.15;18.00;;;16.90;99.90;;;;;;5084425;28;20074;-87
2023/08/27 08:17:18;;;;;;;34.85;18.13;;;16.80;99.90;;;;;;5080277;28;20093;-87
2023/08/27 08:19:46;;;;;;;37.60;19.63;;;16.60;99.90;;;;;;5070668;28;20032;-87
2023/08/27 08:22:12;;;;;;;26.42;16.17;;;16.60;99.90;;;;;;5064970;28;20031;-87
2023/08/27 08:24:38;;;;;;;24.38;16.02;;;16.80;99.90;;;;;;5081229;28;20020;-87
2023/08/27 08:27:04;;;;;;;28.60;15.98;;;16.70;99.90;;;;;;5083370;28;20517;-87
2023/08/27 08:29:33;;;;;;;30.10;16.15;;;16.90;99.90;;;;;;5067099;28;20381;-88
2023/08/27 08:31:59;;;;;;;22.88;15.50;;;17.00;99.90;;;;;;5064786;28;20566;-87
2023/08/27 08:34:28;;;;;;;28.70;16.55;;;16.90;99.90;;;;;;5080606;28;20487;-87
2023/08/27 08:36:55;;;;;;;32.55;16.55;;;16.90;99.90;;;;;;5068448;28;20028;-87
2023/08/27 08:39:21;;;;;;;27.77;15.90;;;16.90;99.90;;;;;;5081623;28;20499;-88
2023/08/27 08:41:58;;;;;;;25.30;16.13;;;17.00;99.90;;;;;;5087240;28;20103;-87
2023/08/27 08:44:34;;;;;;;21.52;14.70;;;17.20;99.90;;;;;;5065960;28;20042;-87
2023/08/27 08:47:11;;;;;;;25.33;13.65;;;17.60;99.90;;;;;;5097225;28;20074;-87
2023/08/27 08:49:40;;;;;;;26.70;13.45;;;17.90;99.90;;;;;;5069590;28;20115;-87
2023/08/27 08:52:09;;;;;;;21.60;14.13;;;18.20;99.90;;;;;;5060056;28;20024;-88
2023/08/27 08:54:38;;;;;;;22.05;15.13;;;18.10;99.90;;;;;;5063430;28;20825;-87
2023/08/27 08:57:07;;;;;;;23.33;14.38;;;17.80;99.90;;;;;;5082597;28;20056;-87
2023/08/27 08:59:33;;;;;;;24.08;13.88;;;17.70;99.90;;;;;;5079851;28;20023;-87
2023/08/27 09:01:59;;;;;;;23.98;15.48;;;17.90;99.90;;;;;;5066019;28;20032;-87
2023/08/27 09:04:26;;;;;;;21.75;14.77;;;17.90;99.90;;;;;;5064825;28;20474;-87
2023/08/27 09:06:53;;;;;;;23.50;14.50;;;17.60;99.90;;;;;;5061440;28;20032;-87
2023/08/27 09:09:22;;;;;;;20.00;14.95;;;17.80;99.90;;;;;;5066410;28;20027;-87
2023/08/27 09:11:49;;;;;;;22.67;14.48;;;18.00;99.90;;;;;;5079464;28;20044;-87
2023/08/27 09:14:15;;;;;;;19.52;14.70;;;18.10;99.90;;;;;;5068140;28;20114;-87
2023/08/27 09:16:41;;;;;;;26.33;16.25;;;18.30;99.90;;;;;;5065715;28;20028;-88
2023/08/27 09:19:08;;;;;;;25.55;15.90;;;18.50;99.90;;;;;;5082390;28;20086;-88
2023/08/27 09:21:34;;;;;;;22.38;16.20;;;18.50;99.90;;;;;;5068196;28;20130;-89
2023/08/27 09:24:00;;;;;;;22.17;15.15;;;19.10;99.90;;;;;;5078152;28;20056;-88
2023/08/27 09:26:25;;;;;;;24.00;14.43;;;19.40;99.90;;;;;;5067298;28;20498;-88
2023/08/27 09:28:52;;;;;;;24.63;14.70;;;19.40;99.90;;;;;;5067126;28;20789;-88
2023/08/27 09:31:37;;;;;;;21.38;15.90;;;19.50;99.90;;;;;;5080760;28;20043;-88
2023/08/27 09:34:03;;;;;;;18.20;13.55;;;20.00;99.90;;;;;;5069463;28;21736;-88
2023/08/27 09:36:32;;;;;;;17.30;13.10;;;19.80;99.90;;;;;;5063027;28;20039;-88
2023/08/27 09:39:07;;;;;;;20.65;14.13;;;19.60;99.90;;;;;;5098566;28;20532;-88
2023/08/27 09:41:39;;;;;;;24.80;13.80;;;19.40;99.90;;;;;;5055759;28;20073;-88
2023/08/27 09:44:05;;;;;;;22.23;13.65;;;19.80;99.90;;;;;;5068603;28;20089;-87
2023/08/27 09:46:31;;;;;;;19.13;11.38;;;20.00;99.90;;;;;;5078095;28;20059;-88
2023/08/27 09:49:04;;;;;;;18.02;11.68;;;20.00;99.90;;;;;;5065420;28;20028;-88
2023/08/27 09:51:35;;;;;;;16.15;10.65;;;19.70;99.90;;;;;;5065340;28;20019;-87
2023/08/27 09:54:11;;;;;;;;;;;19.30;99.90;;;;;;5091025;28;20223;-88
2023/08/27 09:56:37;;;;;;;15.40;8.90;;;19.30;99.90;;;;;;5080158;28;20420;-88
2023/08/27 09:59:05;;;;;;;16.70;7.30;;;19.90;99.90;;;;;;5066123;28;20107;-88
2023/08/27 10:01:36;;;;;;;13.98;8.18;;;20.60;99.90;;;;;;5079478;28;20394;-88
2023/08/27 10:04:09;;;;;;;13.25;7.70;;;21.20;99.90;;;;;;5083465;28;20174;-88
2023/08/27 10:06:36;;;;;;;14.75;7.82;;;21.70;99.90;;;;;;5084098;28;20035;-88
2023/08/27 10:09:02;;;;;;;7.97;6.45;;;21.50;99.90;;;;;;5062232;28;20016;-88
2023/08/27 10:11:28;;;;;;;10.75;7.05;;;21.80;99.90;;;;;;5058880;28;20032;-88
2023/08/27 10:13:57;;;;;;;10.73;6.40;;;22.10;99.90;;;;;;5080890;28;20093;-88
2023/08/27 10:16:23;;;;;;;9.48;5.80;;;22.30;99.90;;;;;;5082316;28;20036;-88
2023/08/27 10:18:50;;;;;;;11.75;5.75;;;22.30;99.90;;;;;;5064460;28;20048;-88
2023/08/27 10:21:16;;;;;;;9.50;6.68;;;22.50;99.90;;;;;;5086149;28;20069;-89
2023/08/27 10:23:42;;;;;;;7.53;5.43;;;22.40;99.90;;;;;;5057425;28;20391;-89
2023/08/27 10:26:08;;;;;;;9.82;5.82;;;22.20;99.90;;;;;;5098044;28;20024;-88
2023/08/27 10:28:35;;;;;;;11.32;6.15;;;22.00;99.90;;;;;;5091688;28;20032;-88
2023/08/27 10:31:05;;;;;;;10.40;5.25;;;21.50;99.90;;;;;;5064384;28;20039;-88
2023/08/27 10:33:31;;;;;;;13.45;5.40;;;21.90;99.90;;;;;;5086005;28;20169;-88
2023/08/27 10:36:03;;;;;;;7.32;3.97;;;22.40;99.90;;;;;;5057622;28;20020;-88
2023/08/27 10:38:33;;;;;;;8.88;5.43;;;23.10;99.90;;;;;;5073909;28;20042;-88
2023/08/27 10:41:00;;;;;;;10.18;4.68;;;23.10;99.90;;;;;;5093264;28;20110;-93
2023/08/27 10:43:35;;;;;;;11.85;4.63;;;22.90;99.90;;;;;;5066328;28;20035;-90
2023/08/27 10:46:17;;;;;;;4.95;4.03;;;22.60;99.90;;;;;;5080902;28;20059;-90
2023/08/27 10:48:53;;;;;;;13.00;4.65;;;22.30;99.90;;;;;;5083080;28;20028;-90
2023/08/27 10:51:21;;;;;;;6.00;4.18;;;22.00;99.90;;;;;;5084032;28;20032;-90
2023/08/27 10:53:50;;;;;;;6.90;4.07;;;21.50;99.90;;;;;;5060195;28;20024;-89
2023/08/27 10:56:29;;;;;;;5.47;3.95;;;21.70;99.90;;;;;;5082526;28;20119;-90
2023/08/27 10:59:28;;;;;;;7.72;4.43;;;22.20;99.90;;;;;;5059433;28;20090;-89
2023/08/27 11:01:53;;;;;;;9.13;5.55;;;22.50;99.90;;;;;;5076971;28;20550;-89
2023/08/27 11:04:19;;;;;;;8.77;5.85;;;22.50;99.90;;;;;;5080368;28;20020;-90
2023/08/27 11:06:49;;;;;;;6.50;5.25;;;22.20;99.90;;;;;;5074140;28;20028;-89
2023/08/27 11:09:15;;;;;;;6.82;5.00;;;22.10;99.90;;;;;;5082192;28;20027;-90
2023/08/27 11:11:49;;;;;;;6.30;4.78;;;22.10;99.90;;;;;;5067182;28;20039;-90
2023/08/27 11:14:16;;;;;;;8.90;5.00;;;21.80;99.90;;;;;;5068461;28;20028;-90
2023/08/27 11:17:03;;;;;;;7.93;4.35;;;21.70;99.90;;;;;;5070308;28;20067;-89
2023/08/27 11:19:35;;;;;;;6.22;4.80;;;21.60;99.90;;;;;;5068111;28;20130;-89
2023/08/27 11:22:12;;;;;;;7.00;3.83;;;21.60;99.90;;;;;;5065365;28;20082;-90
2023/08/27 11:24:48;;;;;;;9.63;4.15;;;22.10;99.90;;;;;;5092418;28;20028;-90
2023/08/27 11:27:18;;;;;;;5.05;3.38;;;22.70;99.90;;;;;;5068743;28;20442;-90
2023/08/27 11:29:46;;;;;;;7.25;4.20;;;22.80;99.90;;;;;;5086618;28;20032;-91
2023/08/27 11:32:13;;;;;;;10.23;3.40;;;22.70;99.90;;;;;;5084814;28;20107;-89
2023/08/27 11:34:41;;;;;;;5.72;3.00;;;21.90;99.90;;;;;;5065175;28;20032;-89
2023/08/27 11:37:07;;;;;;;7.20;3.25;;;21.40;99.90;;;;;;5070308;28;20028;-90
2023/08/27 11:39:35;;;;;;;10.00;3.88;;;21.20;99.90;;;;;;5083694;28;20039;-90
2023/08/27 11:42:00;;;;;;;6.85;3.05;;;21.50;99.90;;;;;;5072117;28;20536;-90
2023/08/27 11:44:26;;;;;;;6.50;2.92;;;21.50;99.90;;;;;;5067678;28;20122;-90
2023/08/27 11:46:52;;;;;;;10.02;4.22;;;21.80;99.90;;;;;;5064559;28;20027;-90
2023/08/27 11:49:35;;;;;;;6.57;3.47;;;22.50;99.90;;;;;;5069762;28;20531;-90
2023/08/27 11:52:01;;;;;;;4.85;3.05;;;23.00;99.90;;;;;;5061716;28;20032;-90
2023/08/27 11:54:32;;;;;;;5.50;2.78;;;23.60;99.90;;;;;;5071531;28;20094;-90
2023/08/27 11:56:58;;;;;;;5.78;3.25;;;23.80;99.90;;;;;;5082535;28;20063;-89
2023/08/27 11:59:27;;;;;;;5.47;3.08;;;23.40;99.90;;;;;;5083955;28;20032;-90
2023/08/27 12:01:57;;;;;;;8.65;3.40;;;23.00;99.90;;;;;;5083908;28;20034;-90
2023/08/27 12:04:25;;;;;;;4.75;2.70;;;22.70;99.90;;;;;;5064426;28;20023;-89
2023/08/27 12:07:02;;;;;;;4.05;2.53;;;22.50;99.90;;;;;;5084509;28;20078;-90
2023/08/27 12:09:29;;;;;;;6.53;3.10;;;22.50;99.90;;;;;;5067889;28;20028;-89
2023/08/27 12:11:59;;;;;;;4.57;2.78;;;22.70;99.90;;;;;;5063166;28;20085;-89
2023/08/27 12:14:26;;;;;;;8.00;2.88;;;23.10;99.90;;;;;;5066919;28;20037;-89
2023/08/27 12:16:53;;;;;;;7.50;3.17;;;23.70;99.90;;;;;;5072346;28;20131;-90
2023/08/27 12:19:22;;;;;;;11.85;3.08;;;23.70;99.90;;;;;;5059730;28;20028;-89
2023/08/27 12:21:49;;;;;;;5.40;2.88;;;23.30;99.90;;;;;;5076675;28;20036;-90
2023/08/27 12:24:39;;;;;;;6.53;2.35;;;23.30;99.90;;;;;;5077759;28;20024;-90
2023/08/27 12:27:07;;;;;;;6.47;2.95;;;22.90;99.90;;;;;;5074941;28;20042;-90
2023/08/27 12:29:38;;;;;;;6.35;2.55;;;22.30;99.90;;;;;;5060488;28;20142;-90
2023/08/27 12:32:14;;;;;;;5.07;3.35;;;22.50;99.90;;;;;;5060755;28;20027;-90
2023/08/27 12:34:42;;;;;;;6.13;2.90;;;23.00;99.90;;;;;;5077472;28;20032;-90